Time;durP1;ratioP1;P1;durP2;ratioP2;P2;SDS_P1;SDS_P2;PMS_P1;PMS_P2;Temp;Humidity;BMP_temperature;BMP_pressure;BME280_temperature;BME280_humidity;BME280_pressure;Samples;Min_cycle;Max_cycle;Signal;HPM_P1;HPM_P2
2022/02/23 00:00:22;;;;;;;;;;;;;;;2.85;69.89;97330.97;5072700;28;20180;-61
2022/02/23 00:02:47;;;;;;;;;;;;;;;2.91;69.85;97328.22;5074959;28;20023;-62
2022/02/23 00:05:13;;;;;;;;;;;;;;;2.96;69.64;97338.72;5073875;28;19973;-61
2022/02/23 00:07:38;;;;;;;;;;;;;;;2.91;69.64;97330.00;5068876;28;19933;-61
2022/02/23 00:10:04;;;;;;;;;;;;;;;2.91;69.70;97335.25;5055099;28;19924;-60
2022/02/23 00:12:30;;;;;;;;;;;;;;;2.90;69.83;97337.06;5056980;28;19968;-61
2022/02/23 00:14:57;;;;;;;;;;;;;;;2.89;70.06;97342.56;5074956;28;19925;-61
2022/02/23 00:17:25;;;;;;;;;;;;;;;2.84;69.96;97345.09;5075163;28;20026;-62
2022/02/23 00:19:53;;;;;;;;;;;;;;;2.87;70.00;97345.41;5074517;28;19970;-61
2022/02/23 00:22:19;;;;;;;;;;;;;;;2.90;69.84;97347.53;5064484;28;20370;-60
2022/02/23 00:24:44;;;;;;;;;;;;;;;2.89;69.72;97345.97;5061028;28;20022;-60
2022/02/23 00:27:10;;;;;;;;;;;;;;;2.83;70.13;97351.38;5071899;28;20343;-60
2022/02/23 00:29:36;;;;;;;;;;;;;;;2.85;69.99;97359.75;5073484;28;19935;-60
2022/02/23 00:32:02;;;;;;;;;;;;;;;2.90;70.05;97357.22;5074337;28;20402;-61
2022/02/23 00:34:27;;;;;;;;;;;;;;;2.91;69.94;97351.75;5073364;28;19931;-62
2022/02/23 00:36:54;;;;;;;;;;;;;;;2.86;70.13;97356.13;5074366;28;20289;-61
2022/02/23 00:39:20;;;;;;;;;;;;;;;2.86;70.06;97363.97;5074439;28;19925;-61
2022/02/23 00:41:46;;;;;;;;;;;;;;;2.81;70.28;97366.50;5074464;28;19932;-61
2022/02/23 00:44:11;;;;;;;;;;;;;;;2.76;70.42;97369.81;5073655;28;19925;-60
2022/02/23 00:46:37;;;;;;;;;;;;;;;2.81;70.33;97371.72;5074054;28;20035;-61
2022/02/23 00:49:02;;;;;;;;;;;;;;;2.89;70.17;97377.38;5074270;28;20027;-60
2022/02/23 00:51:28;;;;;;;;;;;;;;;2.91;69.91;97380.56;5074212;28;19929;-60
2022/02/23 00:53:54;;;;;;;;;;;;;;;2.91;69.30;97375.31;5037426;28;19925;-60
2022/02/23 00:56:19;;;;;;;;;;;;;;;2.86;69.48;97390.94;5052976;28;19935;-62
2022/02/23 00:58:45;;;;;;;;;;;;;;;2.85;69.91;97391.16;5052896;28;19974;-61
2022/02/23 01:01:11;;;;;;;;;;;;;;;2.90;69.68;97389.41;5059830;28;20308;-60
2022/02/23 01:03:36;;;;;;;;;;;;;;;2.88;69.72;97393.28;5074140;28;19924;-60
2022/02/23 01:06:02;;;;;;;;;;;;;;;2.90;69.82;97391.25;5074087;28;19935;-60
2022/02/23 01:08:27;;;;;;;;;;;;;;;2.94;69.43;97390.53;5073778;28;19986;-62
2022/02/23 01:10:53;;;;;;;;;;;;;;;2.94;69.42;97401.00;5072447;28;19936;-61
2022/02/23 01:13:19;;;;;;;;;;;;;;;2.91;69.76;97398.06;5072478;28;19931;-62
2022/02/23 01:15:44;;;;;;;;;;;;;;;2.83;69.70;97394.00;5072545;28;19928;-60
2022/02/23 01:18:10;;;;;;;;;;;;;;;2.78;69.99;97393.13;5073942;28;19924;-60
2022/02/23 01:20:35;;;;;;;;;;;;;;;2.74;69.92;97405.91;5073361;28;19929;-61
2022/02/23 01:23:01;;;;;;;;;;;;;;;2.65;70.38;97400.25;5073793;28;20294;-63
2022/02/23 01:25:28;;;;;;;;;;;;;;;2.73;70.41;97399.84;5072192;28;19924;-61
2022/02/23 01:27:53;;;;;;;;;;;;;;;2.81;69.89;97390.84;5073720;28;19932;-61
2022/02/23 01:30:19;;;;;;;;;;;;;;;2.80;69.74;97409.41;5072167;28;19924;-62
2022/02/23 01:32:44;;;;;;;;;;;;;;;2.79;70.17;97410.41;5073202;28;19931;-63
2022/02/23 01:35:10;;;;;;;;;;;;;;;2.83;69.80;97408.94;5072252;28;19971;-60
2022/02/23 01:37:35;;;;;;;;;;;;;;;2.83;69.65;97414.94;5073356;28;19932;-60
2022/02/23 01:40:01;;;;;;;;;;;;;;;2.84;69.72;97415.75;5072144;28;20380;-60
2022/02/23 01:42:28;;;;;;;;;;;;;;;2.86;69.53;97416.31;5071489;28;19928;-60
2022/02/23 01:44:54;;;;;;;;;;;;;;;2.89;69.38;97423.69;5073084;28;19954;-62
2022/02/23 01:47:19;;;;;;;;;;;;;;;2.79;69.98;97420.88;5072932;28;19967;-62
2022/02/23 01:49:45;;;;;;;;;;;;;;;2.83;69.86;97422.00;5072723;28;19931;-60
2022/02/23 01:52:10;;;;;;;;;;;;;;;2.80;69.77;97422.47;5053626;28;19925;-61
2022/02/23 01:54:36;;;;;;;;;;;;;;;2.73;70.33;97430.44;5052807;28;19928;-61
2022/02/23 01:57:02;;;;;;;;;;;;;;;2.76;70.19;97429.97;5053222;28;19925;-61
2022/02/23 01:59:27;;;;;;;;;;;;;;;2.73;70.42;97430.44;5059551;28;20286;-60
2022/02/23 02:01:53;;;;;;;;;;;;;;;2.70;70.26;97430.91;5073006;28;19935;-61
2022/02/23 02:04:21;;;;;;;;;;;;;;;2.70;70.55;97436.16;5071831;28;19931;-61
2022/02/23 02:06:48;;;;;;;;;;;;;;;2.72;70.79;97437.50;5072717;28;19935;-61
2022/02/23 02:09:14;;;;;;;;;;;;;;;2.73;70.99;97433.84;5072879;28;19924;-62
2022/02/23 02:11:39;;;;;;;;;;;;;;;2.73;71.10;97440.91;5072745;28;20390;-60
2022/02/23 02:14:05;;;;;;;;;;;;;;;2.71;71.34;97449.00;5072531;28;19928;-62
2022/02/23 02:16:31;;;;;;;;;;;;;;;2.72;71.44;97445.38;5070815;28;19944;-61
2022/02/23 02:18:58;;;;;;;;;;;;;;;2.75;71.81;97453.78;5072666;28;19954;-62
2022/02/23 02:21:28;;;;;;;;;;;;;;;2.67;72.27;97450.50;5071185;28;19935;-60
2022/02/23 02:23:53;;;;;;;;;;;;;;;2.67;72.49;97458.34;5072628;28;20022;-61
2022/02/23 02:26:19;;;;;;;;;;;;;;;2.68;72.50;97464.41;5072081;28;20381;-62
2022/02/23 02:28:44;;;;;;;;;;;;;;;2.63;72.44;97461.69;5072181;28;19940;-63
2022/02/23 02:31:10;;;;;;;;;;;;;;;2.59;73.26;97461.34;5072535;28;19928;-60
2022/02/23 02:33:35;;;;;;;;;;;;;;;2.54;73.42;97463.06;5072497;28;19943;-61
2022/02/23 02:36:01;;;;;;;;;;;;;;;2.53;73.87;97467.50;5063539;28;19928;-61
2022/02/23 02:38:27;;;;;;;;;;;;;;;2.60;73.33;97476.00;5050787;28;19970;-60
2022/02/23 02:40:52;;;;;;;;;;;;;;;2.65;72.86;97470.09;5052076;28;19975;-60
2022/02/23 02:43:18;;;;;;;;;;;;;;;2.58;72.90;97480.66;5051119;28;19924;-62
2022/02/23 02:45:43;;;;;;;;;;;;;;;2.57;73.35;97483.53;5066557;28;20351;-61
2022/02/23 02:48:09;;;;;;;;;;;;;;;2.57;73.28;97483.53;5072078;28;19924;-60
2022/02/23 02:50:35;;;;;;;;;;;;;;;2.61;73.15;97485.44;5071961;28;19925;-61
2022/02/23 02:53:00;;;;;;;;;;;;;;;2.61;73.10;97500.34;5068786;28;19932;-62
2022/02/23 02:55:26;;;;;;;;;;;;;;;2.56;73.43;97497.63;5050687;28;19954;-61
2022/02/23 02:57:52;;;;;;;;;;;;;;;2.56;73.28;97487.16;5051926;28;19947;-62
2022/02/23 03:00:17;;;;;;;;;;;;;;;2.50;73.61;97496.75;5052020;28;19925;-61
2022/02/23 03:02:43;;;;;;;;;;;;;;;2.55;73.50;97498.66;5050802;28;19944;-60
2022/02/23 03:05:09;;;;;;;;;;;;;;;2.54;73.58;97497.06;5033940;28;20389;-59
2022/02/23 03:07:34;;;;;;;;;;;;;;;2.51;73.92;97500.94;5052210;28;20019;-60
2022/02/23 03:10:00;;;;;;;;;;;;;;;2.42;74.41;97504.94;5069357;28;20378;-60
2022/02/23 03:12:26;;;;;;;;;;;;;;;2.44;74.31;97500.25;5064301;28;20354;-61
2022/02/23 03:14:52;;;;;;;;;;;;;;;2.47;74.38;97508.47;5051675;28;19956;-60
2022/02/23 03:17:17;;;;;;;;;;;;;;;2.43;74.46;97502.09;5058523;28;20057;-60
2022/02/23 03:19:43;;;;;;;;;;;;;;;2.48;74.59;97502.19;5074202;28;19924;-60
2022/02/23 03:22:08;;;;;;;;;;;;;;;2.46;74.80;97508.69;5074467;28;19935;-60
2022/02/23 03:24:34;;;;;;;;;;;;;;;2.36;75.28;97513.72;5075824;28;19953;-61
2022/02/23 03:26:59;;;;;;;;;;;;;;;2.42;75.06;97513.59;5075821;28;20309;-62
2022/02/23 03:29:25;;;;;;;;;;;;;;;2.35;75.21;97512.09;5075629;28;19924;-61
2022/02/23 03:31:50;;;;;;;;;;;;;;;2.36;75.16;97513.72;5074279;28;19932;-60
2022/02/23 03:34:16;;;;;;;;;;;;;;;2.41;74.98;97517.22;5075854;28;19929;-61
2022/02/23 03:36:41;;;;;;;;;;;;;;;2.41;74.89;97519.84;5075486;28;20517;-60
2022/02/23 03:39:07;;;;;;;;;;;;;;;2.35;74.85;97525.97;5075409;28;20039;-61
2022/02/23 03:41:32;;;;;;;;;;;;;;;2.34;74.82;97523.59;5075546;28;19998;-60
2022/02/23 03:43:58;;;;;;;;;;;;;;;2.27;75.15;97516.69;5075322;28;20447;-61
2022/02/23 03:46:23;;;;;;;;;;;;;;;2.28;75.42;97527.91;5075412;28;19929;-63
2022/02/23 03:48:49;;;;;;;;;;;;;;;2.30;75.85;97523.28;5075513;28;19950;-63
2022/02/23 03:51:14;;;;;;;;;;;;;;;2.34;75.54;97523.59;5075237;28;19928;-61
2022/02/23 03:53:41;;;;;;;;;;;;;;;2.39;75.19;97527.13;5075369;28;19931;-60
2022/02/23 03:56:38;;;;;;;;;;;;;;;2.43;75.29;97525.63;5075344;28;19998;-61
2022/02/23 03:58:53;;;;;;;;;;;;;;;2.49;74.50;97532.53;5075032;28;19969;-60
2022/02/23 04:01:18;;;;;;;;;;;;;;;2.46;74.94;97530.38;5073729;28;19928;-60
2022/02/23 04:03:44;;;;;;;;;;;;;;;2.47;74.71;97532.00;5073707;28;20023;-63
2022/02/23 04:06:09;;;;;;;;;;;;;;;2.40;74.80;97536.53;5090345;28;19951;-61
2022/02/23 04:08:35;;;;;;;;;;;;;;;2.44;74.80;97536.88;5070622;28;19925;-61
2022/02/23 04:11:00;;;;;;;;;;;;;;;2.50;74.79;97539.38;5053601;28;19964;-60
2022/02/23 04:13:26;;;;;;;;;;;;;;;2.61;74.11;97544.81;5054825;28;20390;-59
2022/02/23 04:15:51;;;;;;;;;;;;;;;2.55;73.98;97543.13;5054841;28;19929;-60
2022/02/23 04:18:17;;;;;;;;;;;;;;;2.51;74.00;97550.63;5054768;28;19948;-60
2022/02/23 04:20:42;;;;;;;;;;;;;;;2.51;74.50;97553.25;5054427;28;20015;-61
2022/02/23 04:23:08;;;;;;;;;;;;;;;2.56;74.00;97555.97;5054461;28;19932;-60
2022/02/23 04:25:33;;;;;;;;;;;;;;;2.52;73.89;97548.81;5054364;28;19924;-62
2022/02/23 04:27:59;;;;;;;;;;;;;;;2.44;74.05;97560.41;5062480;28;19947;-62
2022/02/23 04:30:25;;;;;;;;;;;;;;;2.42;74.02;97562.47;5073024;28;20014;-61
2022/02/23 04:32:50;;;;;;;;;;;;;;;2.38;74.07;97562.16;5074529;28;19970;-61
2022/02/23 04:35:16;;;;;;;;;;;;;;;2.36;73.82;97564.19;5074394;28;20465;-60
2022/02/23 04:37:42;;;;;;;;;;;;;;;2.25;74.56;97557.13;5074165;28;20305;-60
2022/02/23 04:40:08;;;;;;;;;;;;;;;2.33;74.95;97571.69;5064563;28;19932;-61
2022/02/23 04:42:33;;;;;;;;;;;;;;;2.37;74.99;97573.59;5054710;28;19960;-60
2022/02/23 04:45:02;;;;;;;;;;;;;;;2.32;74.79;97577.94;5054458;28;20373;-61
2022/02/23 04:47:29;;;;;;;;;;;;;;;2.36;74.53;97579.88;5067232;28;19967;-60
2022/02/23 04:49:55;;;;;;;;;;;;;;;2.32;74.77;97570.88;5074306;28;20317;-61
2022/02/23 04:52:23;;;;;;;;;;;;;;;2.31;74.88;97577.13;5074573;28;19981;-61
2022/02/23 04:54:50;;;;;;;;;;;;;;;2.32;74.87;97577.94;5074313;28;19997;-61
2022/02/23 04:57:16;;;;;;;;;;;;;;;2.31;75.21;97576.34;5064820;28;20432;-60
2022/02/23 04:59:41;;;;;;;;;;;;;;;2.38;75.34;97583.06;5054056;28;19925;-60
2022/02/23 05:02:09;;;;;;;;;;;;;;;2.40;74.71;97590.66;5052951;28;19952;-62
2022/02/23 05:04:35;;;;;;;;;;;;;;;2.46;75.01;97592.38;5054175;28;19970;-60
2022/02/23 05:07:00;;;;;;;;;;;;;;;2.53;74.65;97589.63;5069611;28;19929;-61
2022/02/23 05:09:26;;;;;;;;;;;;;;;2.55;74.87;97595.44;5063890;28;19928;-59
2022/02/23 05:11:51;;;;;;;;;;;;;;;2.56;74.50;97597.84;5052544;28;19982;-61
2022/02/23 05:14:17;;;;;;;;;;;;;;;2.54;74.89;97596.47;5053646;28;20220;-62
2022/02/23 05:16:42;;;;;;;;;;;;;;;2.46;74.70;97598.38;5066443;28;19928;-60
2022/02/23 05:19:08;;;;;;;;;;;;;;;2.53;74.93;97602.69;5073844;28;19924;-60
2022/02/23 05:21:34;;;;;;;;;;;;;;;2.48;74.52;97598.97;5073370;28;20022;-61
2022/02/23 05:23:59;;;;;;;;;;;;;;;2.55;75.48;97606.69;5073773;28;19930;-62
2022/02/23 05:26:25;;;;;;;;;;;;;;;2.47;75.24;97609.63;5073531;28;19928;-60
2022/02/23 05:28:50;;;;;;;;;;;;;;;2.48;74.97;97613.88;5055000;28;20390;-62
2022/02/23 05:31:16;;;;;;;;;;;;;;;2.55;76.08;97618.97;5054878;28;20389;-60
2022/02/23 05:33:41;;;;;;;;;;;;;;;2.56;75.44;97613.53;5053212;28;19924;-62
2022/02/23 05:36:07;;;;;;;;;;;;;;;2.54;74.93;97628.63;5053207;28;19937;-61
2022/02/23 05:38:32;;;;;;;;;;;;;;;2.58;75.43;97631.59;5053067;28;20015;-60
2022/02/23 05:40:58;;;;;;;;;;;;;;;2.54;74.65;97640.94;5070850;28;20007;-60
2022/02/23 05:43:24;;;;;;;;;;;;;;;2.48;75.41;97640.81;5072954;28;19924;-62
2022/02/23 05:45:50;;;;;;;;;;;;;;;2.40;75.87;97645.59;5073109;28;19928;-60
2022/02/23 05:48:15;;;;;;;;;;;;;;;2.48;76.40;97646.03;5071393;28;19924;-62
2022/02/23 05:50:41;;;;;;;;;;;;;;;2.47;75.26;97656.72;5070977;28;20390;-61
2022/02/23 05:53:06;;;;;;;;;;;;;;;2.39;74.77;97654.47;5052789;28;20282;-61
2022/02/23 05:55:32;;;;;;;;;;;;;;;2.41;76.03;97660.25;5054024;28;19978;-60
2022/02/23 05:57:58;;;;;;;;;;;;;;;2.52;75.68;97662.06;5052774;28;20279;-60
2022/02/23 06:00:23;;;;;;;;;;;;;;;2.52;75.31;97666.50;5052612;28;19932;-59
2022/02/23 06:02:49;;;;;;;;;;;;;;;2.51;74.91;97670.94;5064533;28;20014;-62
2022/02/23 06:05:14;;;;;;;;;;;;;;;2.51;75.41;97668.34;5052406;28;20463;-61
2022/02/23 06:07:40;;;;;;;;;;;;;;;2.55;75.16;97671.28;5051105;28;19929;-61
2022/02/23 06:10:06;;;;;;;;;;;;;;;2.68;75.50;97679.72;5052735;28;19978;-61
2022/02/23 06:12:31;;;;;;;;;;;;;;;2.70;74.10;97677.63;5055013;28;19929;-61
2022/02/23 06:14:57;;;;;;;;;;;;;;;2.71;73.89;97683.69;5052443;28;19970;-60
2022/02/23 06:17:24;;;;;;;;;;;;;;;2.73;74.50;97692.88;5054769;28;19928;-61
2022/02/23 06:19:50;;;;;;;;;;;;;;;2.65;73.78;97693.25;5052489;28;19935;-61
2022/02/23 06:22:16;;;;;;;;;;;;;;;2.82;75.09;97703.81;5050867;28;19932;-60
2022/02/23 06:24:41;;;;;;;;;;;;;;;2.86;74.79;97697.09;5066266;28;19925;-61
2022/02/23 06:27:07;;;;;;;;;;;;;;;2.99;73.24;97710.97;5065828;28;19936;-60
2022/02/23 06:29:32;;;;;;;;;;;;;;;2.91;73.16;97710.31;5060507;28;19931;-60
2022/02/23 06:32:05;;;;;;;;;;;;;;;2.92;74.49;97719.75;5071920;28;19929;-63
2022/02/23 06:34:31;;;;;;;;;;;;;;;2.96;73.82;97728.72;5071881;28;19925;-61
2022/02/23 06:37:02;;;;;;;;;;;;;;;2.93;73.90;97723.16;5070898;28;19932;-63
2022/02/23 06:39:27;;;;;;;;;;;;;;;2.89;73.58;97724.63;5072233;28;19948;-60
2022/02/23 06:41:53;;;;;;;;;;;;;;;2.92;73.22;97724.19;5064127;28;20070;-61
2022/02/23 06:44:20;;;;;;;;;;;;;;;2.91;74.04;97728.63;5052009;28;20313;-61
2022/02/23 06:46:47;;;;;;;;;;;;;;;2.86;73.16;97738.97;5052170;28;19929;-62
2022/02/23 06:49:13;;;;;;;;;;;;;;;3.02;73.34;97739.31;5050479;28;19929;-62
2022/02/23 06:51:39;;;;;;;;;;;;;;;3.17;72.63;97740.41;5051440;28;19976;-60
2022/02/23 06:54:04;;;;;;;;;;;;;;;3.14;72.28;97737.47;5051070;28;20397;-62
2022/02/23 06:56:30;;;;;;;;;;;;;;;3.18;72.79;97742.03;5050506;28;19936;-60
2022/02/23 06:58:55;;;;;;;;;;;;;;;3.21;71.96;97753.88;5050600;28;19987;-60
2022/02/23 07:01:21;;;;;;;;;;;;;;;3.24;71.81;97761.25;5051965;28;19929;-59
2022/02/23 07:03:47;;;;;;;;;;;;;;;3.30;72.87;97757.72;5050066;28;20402;-62
2022/02/23 07:06:13;;;;;;;;;;;;;;;3.37;71.83;97766.25;5052025;28;19936;-60
2022/02/23 07:08:43;;;;;;;;;;;;;;;3.45;71.80;97765.09;5052007;28;19975;-61
2022/02/23 07:11:09;;;;;;;;;;;;;;;3.45;70.97;97761.69;5051628;28;19928;-60
2022/02/23 07:13:34;;;;;;;;;;;;;;;3.54;72.18;97773.41;5051439;28;19932;-59
2022/02/23 07:16:00;;;;;;;;;;;;;;;3.67;72.06;97774.94;5051632;28;20035;-62
2022/02/23 07:18:25;;;;;;;;;;;;;;;3.72;70.69;97767.19;5051372;28;19933;-64
2022/02/23 07:20:51;;;;;;;;;;;;;;;3.76;70.77;97771.72;5051605;28;20309;-61
2022/02/23 07:23:16;;;;;;;;;;;;;;;3.84;70.26;97783.69;5051386;28;19925;-63
2022/02/23 07:25:42;;;;;;;;;;;;;;;3.95;70.43;97774.19;5050238;28;19925;-62
2022/02/23 07:28:07;;;;;;;;;;;;;;;4.03;70.64;97779.88;5050874;28;20090;-60
2022/02/23 07:30:33;;;;;;;;;;;;;;;3.89;68.65;97786.41;5045163;28;19920;-61
2022/02/23 07:32:59;;;;;;;;;;;;;;;3.92;69.97;97785.16;5046939;28;19932;-63
2022/02/23 07:35:27;;;;;;;;;;;;;;;3.93;69.50;97787.53;5047586;28;19975;-62
2022/02/23 07:37:54;;;;;;;;;;;;;;;3.96;69.61;97791.50;5045805;28;20391;-61
2022/02/23 07:40:22;;;;;;;;;;;;;;;3.96;68.69;97792.28;5047695;28;19924;-61
2022/02/23 07:42:47;;;;;;;;;;;;;;;3.87;69.93;97804.19;5050769;28;20003;-61
2022/02/23 07:45:13;;;;;;;;;;;;;;;3.88;69.65;97803.16;5051305;28;19932;-61
2022/02/23 07:47:38;;;;;;;;;;;;;;;3.97;69.17;97811.44;5049300;28;20509;-61
2022/02/23 07:50:05;;;;;;;;;;;;;;;4.11;68.75;97804.91;5050855;28;19921;-61
2022/02/23 07:52:31;;;;;;;;;;;;;;;4.18;69.68;97808.19;5050192;28;20409;-63
2022/02/23 07:54:57;;;;;;;;;;;;;;;4.10;68.75;97809.34;5051681;28;20019;-61
2022/02/23 07:57:22;;;;;;;;;;;;;;;4.09;69.20;97820.88;5051143;28;19936;-62
2022/02/23 07:59:48;;;;;;;;;;;;;;;4.19;69.04;97820.25;5049703;28;19936;-60
2022/02/23 08:02:14;;;;;;;;;;;;;;;4.13;68.83;97823.81;5051208;28;19932;-62
2022/02/23 08:04:40;;;;;;;;;;;;;;;4.18;68.16;97831.78;5051561;28;19924;-63
2022/02/23 08:07:06;;;;;;;;;;;;;;;4.19;68.12;97836.00;5045264;28;19932;-63
2022/02/23 08:09:32;;;;;;;;;;;;;;;4.23;68.42;97841.56;5050879;28;20389;-61
2022/02/23 08:11:57;;;;;;;;;;;;;;;4.36;68.08;97843.13;5051283;28;19963;-60
2022/02/23 08:14:24;;;;;;;;;;;;;;;4.43;67.40;97838.53;5051805;28;19925;-63
2022/02/23 08:19:36;;;;;;;;;;;;;;;4.40;67.31;97850.28;5054370;28;19925;-60
2022/02/23 08:22:07;;;;;;;;;;;;;;;4.51;68.02;97856.53;5051687;28;20377;-58
2022/02/23 08:24:34;;;;;;;;;;;;;;;4.51;67.62;97859.16;5052694;28;19925;-59
2022/02/23 08:27:00;;;;;;;;;;;;;;;4.59;67.96;97857.94;5051751;28;19929;-60
2022/02/23 08:29:26;;;;;;;;;;;;;;;4.81;67.02;97861.50;5051074;28;19929;-61
2022/02/23 08:31:51;;;;;;;;;;;;;;;4.93;66.40;97869.31;5049412;28;19929;-59
2022/02/23 08:34:20;;;;;;;;;;;;;;;4.98;65.92;97872.81;5052142;28;20334;-61
2022/02/23 08:36:46;;;;;;;;;;;;;;;5.04;65.71;97867.66;5050300;28;20374;-62
2022/02/23 08:39:12;;;;;;;;;;;;;;;5.16;66.48;97884.13;5050731;28;20134;-60
2022/02/23 08:41:37;;;;;;;;;;;;;;;5.12;66.44;97885.63;5050890;28;19936;-62
2022/02/23 08:44:06;;;;;;;;;;;;;;;4.96;66.54;97890.63;5053154;28;20283;-62
2022/02/23 08:46:33;;;;;;;;;;;;;;;4.95;66.10;97888.25;5052363;28;19980;-61
2022/02/23 08:48:59;;;;;;;;;;;;;;;4.90;67.58;97896.03;5051647;28;19929;-62
2022/02/23 08:51:24;;;;;;;;;;;;;;;5.01;66.24;97897.81;5050215;28;20435;-61
2022/02/23 08:53:50;;;;;;;;;;;;;;;5.00;65.76;97896.22;5053081;28;19971;-63
2022/02/23 08:56:15;;;;;;;;;;;;;;;4.85;65.65;97907.22;5049961;28;19928;-61
2022/02/23 08:58:41;;;;;;;;;;;;;;;4.67;66.28;97902.97;5048596;28;20301;-61
2022/02/23 09:01:07;;;;;;;;;;;;;;;4.68;65.17;97904.59;5049948;28;19982;-58
2022/02/23 09:03:33;;;;;;;;;;;;;;;4.79;65.47;97908.19;5047366;28;20019;-62
2022/02/23 09:05:58;;;;;;;;;;;;;;;5.05;64.99;97912.03;5048889;28;20031;-62
2022/02/23 09:08:24;;;;;;;;;;;;;;;4.99;63.22;97913.00;5049200;28;19966;-61
2022/02/23 09:10:49;;;;;;;;;;;;;;;4.98;63.70;97925.31;5050530;28;19929;-60
2022/02/23 09:13:15;;;;;;;;;;;;;;;4.98;63.42;97921.91;5048746;28;20031;-61
2022/02/23 09:15:40;;;;;;;;;;;;;;;4.92;63.03;97933.38;5054450;28;19952;-60
2022/02/23 09:18:06;;;;;;;;;;;;;;;4.95;62.97;97920.56;5048764;28;19951;-62
2022/02/23 09:20:33;;;;;;;;;;;;;;;5.05;61.80;97930.44;5051369;28;19977;-61
2022/02/23 09:22:58;;;;;;;;;;;;;;;4.87;62.68;97934.06;5057466;28;19924;-62
2022/02/23 09:25:24;;;;;;;;;;;;;;;4.73;63.09;97943.25;5050277;28;19955;-61
2022/02/23 09:27:49;;;;;;;;;;;;;;;4.60;63.23;97941.72;5050860;28;19925;-62
2022/02/23 09:30:15;;;;;;;;;;;;;;;4.58;63.82;97943.75;5050834;28;19924;-62
2022/02/23 09:32:41;;;;;;;;;;;;;;;4.66;63.59;97951.28;5051807;28;19950;-62
2022/02/23 09:35:07;;;;;;;;;;;;;;;4.51;63.93;97961.47;5033981;28;19935;-61
2022/02/23 09:37:34;;;;;;;;;;;;;;;4.35;63.08;97956.94;5051425;28;19929;-60
2022/02/23 09:39:59;;;;;;;;;;;;;;;4.13;62.82;97954.16;5050155;28;20187;-59
2022/02/23 09:42:26;;;;;;;;;;;;;;;4.02;63.69;97964.41;5052619;28;20018;-62
2022/02/23 09:45:04;;;;;;;;;;;;;;;4.07;62.71;97969.78;5053100;28;19931;-60
2022/02/23 09:47:37;;;;;;;;;;;;;;;4.05;63.30;97976.28;5036048;28;19928;-63
2022/02/23 09:50:04;;;;;;;;;;;;;;;4.13;63.10;97975.94;5052908;28;19925;-62
2022/02/23 09:52:29;;;;;;;;;;;;;;;4.09;63.56;97975.59;5052910;28;20389;-62
2022/02/23 09:54:58;;;;;;;;;;;;;;;4.29;63.45;97980.47;5052393;28;19925;-62
2022/02/23 09:57:24;;;;;;;;;;;;;;;4.44;62.13;97979.16;5051200;28;19929;-60
2022/02/23 09:59:49;;;;;;;;;;;;;;;4.52;62.46;97991.94;5051640;28;19979;-60
2022/02/23 10:02:19;;;;;;;;;;;;;;;4.53;61.87;98006.66;5053374;28;19982;-60
2022/02/23 10:04:45;;;;;;;;;;;;;;;4.60;62.85;97996.81;5051139;28;19994;-63
2022/02/23 10:07:12;;;;;;;;;;;;;;;4.58;61.87;98004.13;5064131;28;19971;-62
2022/02/23 10:09:42;;;;;;;;;;;;;;;4.65;61.93;98006.63;5072477;28;19932;-62
2022/02/23 10:12:07;;;;;;;;;;;;;;;4.59;61.31;98018.84;5072758;28;20101;-62
2022/02/23 10:14:33;;;;;;;;;;;;;;;4.67;61.06;98023.72;5065467;28;20466;-64
2022/02/23 10:16:59;;;;;;;;;;;;;;;4.70;60.59;98023.25;5052637;28;19928;-64
2022/02/23 10:19:24;;;;;;;;;;;;;;;4.74;60.80;98031.50;5051543;28;20024;-62
2022/02/23 10:21:55;;;;;;;;;;;;;;;4.46;61.58;98032.22;5051198;28;20015;-62
2022/02/23 10:24:24;;;;;;;;;;;;;;;4.19;62.19;98034.53;5051053;28;19974;-61
2022/02/23 10:26:53;;;;;;;;;;;;;;;4.04;62.34;98042.88;5050988;28;20015;-60
2022/02/23 10:29:29;;;;;;;;;;;;;;;4.13;62.86;98035.44;5050519;28;19987;-60
2022/02/23 10:31:55;;;;;;;;;;;;;;;4.07;62.48;98039.78;5051632;28;20019;-60
2022/02/23 10:34:21;;;;;;;;;;;;;;;4.23;62.12;98060.06;5050986;28;20027;-58
2022/02/23 10:37:00;;;;;;;;;;;;;;;4.12;62.14;98047.78;5052080;28;19936;-61
2022/02/23 10:39:35;;;;;;;;;;;;;;;4.17;62.07;98053.09;5050902;28;19978;-62
2022/02/23 10:42:10;;;;;;;;;;;;;;;4.22;61.82;98053.22;5084425;28;19928;-59
2022/02/23 10:44:46;;;;;;;;;;;;;;;4.20;61.63;98067.59;5051844;28;19959;-61
2022/02/23 10:47:13;;;;;;;;;;;;;;;4.12;62.22;98066.13;5052360;28;19925;-61
2022/02/23 10:49:39;;;;;;;;;;;;;;;4.12;61.30;98060.88;5052053;28;19929;-60
2022/02/23 10:52:06;;;;;;;;;;;;;;;4.06;61.98;98067.84;5052208;28;19925;-59
2022/02/23 10:54:33;;;;;;;;;;;;;;;4.04;61.94;98071.69;5050832;28;19956;-60
2022/02/23 10:56:58;;;;;;;;;;;;;;;3.87;62.10;98071.56;5052191;28;19931;-61
2022/02/23 10:59:25;;;;;;;;;;;;;;;3.98;61.78;98077.84;5050753;28;20350;-62
2022/02/23 11:01:50;;;;;;;;;;;;;;;3.95;62.27;98080.94;5052001;28;19971;-61
2022/02/23 11:04:18;;;;;;;;;;;;;;;4.02;63.01;98092.91;5051975;28;19960;-61
2022/02/23 11:06:44;;;;;;;;;;;;;;;4.19;62.27;98098.28;5051850;28;19935;-59
2022/02/23 11:09:09;;;;;;;;;;;;;;;4.27;62.14;98100.56;5050204;28;20015;-62
2022/02/23 11:11:35;;;;;;;;;;;;;;;4.24;61.76;98106.28;5050341;28;20320;-62
2022/02/23 11:14:01;;;;;;;;;;;;;;;4.14;62.93;98108.63;5050668;28;19968;-60
2022/02/23 11:16:29;;;;;;;;;;;;;;;4.19;62.15;98115.84;5051550;28;19932;-61
2022/02/23 11:18:58;;;;;;;;;;;;;;;4.14;62.81;98123.59;5050607;28;19932;-59
2022/02/23 11:21:24;;;;;;;;;;;;;;;4.20;62.76;98126.09;5050143;28;19978;-62
2022/02/23 11:23:52;;;;;;;;;;;;;;;4.22;62.24;98121.44;5051555;28;19924;-61
2022/02/23 11:26:18;;;;;;;;;;;;;;;4.17;62.77;98133.63;5050341;28;19929;-62
2022/02/23 11:28:51;;;;;;;;;;;;;;;4.16;63.31;98132.03;5051450;28;19931;-61
2022/02/23 11:31:16;;;;;;;;;;;;;;;4.25;61.54;98128.84;5051221;28;19933;-61
2022/02/23 11:33:57;;;;;;;;;;;;;;;4.22;61.54;98145.03;5049992;28;19925;-62
2022/02/23 11:36:24;;;;;;;;;;;;;;;4.13;61.83;98141.16;5051369;28;19928;-61
2022/02/23 11:38:50;;;;;;;;;;;;;;;4.07;62.12;98152.53;5083619;28;19931;-60
2022/02/23 11:41:27;;;;;;;;;;;;;;;4.15;62.04;98149.59;5054598;28;19929;-60
2022/02/23 11:44:14;;;;;;;;;;;;;;;4.27;61.06;98163.53;5070764;28;19925;-60
2022/02/23 11:46:58;;;;;;;;;;;;;;;4.36;60.61;98166.63;5055425;28;19990;-59
2022/02/23 11:49:26;;;;;;;;;;;;;;;4.35;59.89;98167.63;5055503;28;19931;-60
2022/02/23 11:52:19;;;;;;;;;;;;;;;4.21;59.49;98185.41;5055387;28;19971;-60
2022/02/23 11:54:51;;;;;;;;;;;;;;;4.05;59.97;98178.97;5055356;28;20050;-60
2022/02/23 11:57:35;;;;;;;;;;;;;;;3.99;60.52;98185.13;5053810;28;19982;-61
2022/02/23 12:00:01;;;;;;;;;;;;;;;3.91;60.96;98189.88;5055265;28;19932;-60
2022/02/23 12:02:30;;;;;;;;;;;;;;;3.91;61.06;98201.16;5053686;28;19932;-62
2022/02/23 12:04:56;;;;;;;;;;;;;;;3.76;60.64;98204.19;5054739;28;20373;-61
2022/02/23 12:07:22;;;;;;;;;;;;;;;3.84;60.86;98209.13;5055224;28;20047;-61
2022/02/23 12:09:56;;;;;;;;;;;;;;;3.89;60.32;98199.81;5054976;28;19964;-61
2022/02/23 12:12:29;;;;;;;;;;;;;;;3.78;60.51;98203.97;5054990;28;19974;-61
2022/02/23 12:14:55;;;;;;;;;;;;;;;3.77;60.88;98216.28;5055034;28;19925;-61
2022/02/23 12:17:39;;;;;;;;;;;;;;;3.74;60.97;98223.81;5055097;28;20061;-62
2022/02/23 12:20:05;;;;;;;;;;;;;;;3.45;61.54;98236.63;5054599;28;19925;-60
2022/02/23 12:22:36;;;;;;;;;;;;;;;3.33;61.85;98235.78;5054980;28;19928;-60
2022/02/23 12:25:04;;;;;;;;;;;;;;;3.23;62.20;98245.94;5054160;28;20059;-61
2022/02/23 12:27:30;;;;;;;;;;;;;;;3.21;62.24;98256.66;5053349;28;19936;-60
2022/02/23 12:29:56;;;;;;;;;;;;;;;3.15;62.51;98253.06;5054320;28;19929;-59
2022/02/23 12:32:24;;;;;;;;;;;;;;;3.21;61.79;98259.28;5053185;28;19929;-61
2022/02/23 12:34:52;;;;;;;;;;;;;;;3.14;61.66;98266.38;5054507;28;20333;-61
2022/02/23 12:37:18;;;;;;;;;;;;;;;3.14;61.87;98269.00;5053208;28;20283;-61
2022/02/23 12:39:43;;;;;;;;;;;;;;;3.14;61.71;98280.25;5054338;28;19932;-61
2022/02/23 12:42:11;;;;;;;;;;;;;;;3.13;62.02;98277.88;5019908;28;19952;-61
2022/02/23 12:44:42;;;;;;;;;;;;;;;3.13;61.79;98280.50;5054353;28;19983;-60
2022/02/23 12:47:09;;;;;;;;;;;;;;;2.97;62.56;98289.69;5053084;28;19928;-61
2022/02/23 12:49:35;;;;;;;;;;;;;;;2.76;63.34;98292.69;5054003;28;19924;-61
2022/02/23 12:52:01;;;;;;;;;;;;;;;2.76;63.46;98296.09;5068227;28;19928;-59
2022/02/23 12:54:27;;;;;;;;;;;;;;;2.83;63.02;98304.72;5052637;28;19932;-61
2022/02/23 12:56:57;;;;;;;;;;;;;;;2.83;62.70;98309.16;5054200;28;19928;-61